Sumy, Ukraine
Current Conditions -  °F | °C
As of 10:00 PM on Friday 31 Oct 2014 (Local Time) from UUOK Reporting Station
Clear Clear  
Wind Chill: 34°   Ceiling: Unl
Heat Index: 37°   Visibility: 6mi
Dew Point: 28°   Wind: 4mph
Humidity: 70%   Direction: 320°NW
Pressure: 30.12"   Gusts: NA
Location:  50.92°N, 34.78°E
Report Text: UUOK 311900Z 32002MPS CAVOK 03/M02 Q1020 NOSIG RMK 30CLRD70
Loading
Personal Weather Stations






























Interactive Weather Map
Tropical Storm Tracking
New forecast layout! Learn more

10-Day Weather Forecast

Advertisements
Track Severe Weather on mobile